sensor_id;sensor_type;location;lat;lon;timestamp;P1;durP1;ratioP1;P2;durP2;ratioP2
19664;SDS011;9980;51.020;7.772;2023-04-25T00:00:47;7.20;;;6.03;;
19664;SDS011;9980;51.020;7.772;2023-04-25T00:03:14;7.57;;;5.50;;
19664;SDS011;9980;51.020;7.772;2023-04-25T00:05:40;8.93;;;6.20;;
19664;SDS011;9980;51.020;7.772;2023-04-25T00:08:07;8.73;;;6.57;;
19664;SDS011;9980;51.020;7.772;2023-04-25T00:10:33;10.30;;;6.70;;
19664;SDS011;9980;51.020;7.772;2023-04-25T00:12:59;11.07;;;7.07;;
19664;SDS011;9980;51.020;7.772;2023-04-25T00:15:28;11.00;;;7.30;;
19664;SDS011;9980;51.020;7.772;2023-04-25T00:17:56;10.13;;;6.73;;
19664;SDS011;9980;51.020;7.772;2023-04-25T00:20:22;11.47;;;6.53;;
19664;SDS011;9980;51.020;7.772;2023-04-25T00:22:50;9.53;;;6.17;;
19664;SDS011;9980;51.020;7.772;2023-04-25T00:25:19;11.87;;;7.00;;
19664;SDS011;9980;51.020;7.772;2023-04-25T00:27:45;10.40;;;6.90;;
19664;SDS011;9980;51.020;7.772;2023-04-25T00:30:11;9.43;;;6.00;;
19664;SDS011;9980;51.020;7.772;2023-04-25T00:32:39;9.63;;;5.80;;
19664;SDS011;9980;51.020;7.772;2023-04-25T00:35:06;8.43;;;6.43;;
19664;SDS011;9980;51.020;7.772;2023-04-25T00:37:32;14.20;;;7.10;;
19664;SDS011;9980;51.020;7.772;2023-04-25T00:39:58;10.47;;;7.00;;
19664;SDS011;9980;51.020;7.772;2023-04-25T00:42:25;11.30;;;5.93;;
19664;SDS011;9980;51.020;7.772;2023-04-25T00:44:52;9.70;;;6.17;;
19664;SDS011;9980;51.020;7.772;2023-04-25T00:47:19;11.83;;;6.93;;
19664;SDS011;9980;51.020;7.772;2023-04-25T00:49:45;10.87;;;6.97;;
19664;SDS011;9980;51.020;7.772;2023-04-25T00:52:12;13.03;;;6.23;;
19664;SDS011;9980;51.020;7.772;2023-04-25T00:54:38;9.03;;;6.47;;
19664;SDS011;9980;51.020;7.772;2023-04-25T00:57:05;13.23;;;7.03;;
19664;SDS011;9980;51.020;7.772;2023-04-25T00:59:31;11.27;;;7.17;;
19664;SDS011;9980;51.020;7.772;2023-04-25T01:01:58;10.57;;;7.50;;
19664;SDS011;9980;51.020;7.772;2023-04-25T01:04:26;11.23;;;7.03;;
19664;SDS011;9980;51.020;7.772;2023-04-25T01:06:54;12.53;;;7.60;;
19664;SDS011;9980;51.020;7.772;2023-04-25T01:09:21;15.07;;;8.33;;
19664;SDS011;9980;51.020;7.772;2023-04-25T01:11:48;10.83;;;7.33;;
19664;SDS011;9980;51.020;7.772;2023-04-25T01:14:15;14.33;;;6.70;;
19664;SDS011;9980;51.020;7.772;2023-04-25T01:16:42;13.50;;;7.27;;
19664;SDS011;9980;51.020;7.772;2023-04-25T01:19:09;11.87;;;7.00;;
19664;SDS011;9980;51.020;7.772;2023-04-25T01:21:39;12.97;;;6.97;;
19664;SDS011;9980;51.020;7.772;2023-04-25T01:24:05;12.13;;;7.37;;
19664;SDS011;9980;51.020;7.772;2023-04-25T01:26:32;7.17;;;6.30;;
19664;SDS011;9980;51.020;7.772;2023-04-25T01:29:00;9.27;;;7.23;;
19664;SDS011;9980;51.020;7.772;2023-04-25T01:31:27;8.83;;;6.77;;
19664;SDS011;9980;51.020;7.772;2023-04-25T01:33:54;10.90;;;6.27;;
19664;SDS011;9980;51.020;7.772;2023-04-25T01:36:21;13.03;;;7.03;;
19664;SDS011;9980;51.020;7.772;2023-04-25T01:38:48;10.80;;;6.40;;
19664;SDS011;9980;51.020;7.772;2023-04-25T01:41:15;10.70;;;6.93;;
19664;SDS011;9980;51.020;7.772;2023-04-25T01:43:43;11.53;;;6.50;;
19664;SDS011;9980;51.020;7.772;2023-04-25T01:46:11;8.53;;;6.17;;
19664;SDS011;9980;51.020;7.772;2023-04-25T01:48:38;13.53;;;6.27;;
19664;SDS011;9980;51.020;7.772;2023-04-25T01:51:05;14.37;;;6.57;;
19664;SDS011;9980;51.020;7.772;2023-04-25T01:53:32;10.20;;;6.33;;
19664;SDS011;9980;51.020;7.772;2023-04-25T01:56:00;9.90;;;6.33;;
19664;SDS011;9980;51.020;7.772;2023-04-25T01:58:32;9.40;;;6.77;;
19664;SDS011;9980;51.020;7.772;2023-04-25T02:01:24;7.20;;;5.47;;
19664;SDS011;9980;51.020;7.772;2023-04-25T02:04:09;12.87;;;5.97;;
19664;SDS011;9980;51.020;7.772;2023-04-25T02:06:37;10.43;;;6.00;;
19664;SDS011;9980;51.020;7.772;2023-04-25T02:09:05;8.10;;;5.57;;
19664;SDS011;9980;51.020;7.772;2023-04-25T02:11:32;9.50;;;6.07;;
19664;SDS011;9980;51.020;7.772;2023-04-25T02:14:16;8.83;;;5.07;;
19664;SDS011;9980;51.020;7.772;2023-04-25T02:16:59;11.03;;;5.90;;
19664;SDS011;9980;51.020;7.772;2023-04-25T02:19:25;13.03;;;6.37;;
19664;SDS011;9980;51.020;7.772;2023-04-25T02:21:51;10.00;;;6.10;;
19664;SDS011;9980;51.020;7.772;2023-04-25T02:24:18;9.83;;;5.73;;
19664;SDS011;9980;51.020;7.772;2023-04-25T02:26:44;13.13;;;6.47;;
19664;SDS011;9980;51.020;7.772;2023-04-25T02:29:12;11.83;;;6.63;;
19664;SDS011;9980;51.020;7.772;2023-04-25T02:31:41;11.10;;;6.63;;
19664;SDS011;9980;51.020;7.772;2023-04-25T02:34:08;10.37;;;6.30;;
19664;SDS011;9980;51.020;7.772;2023-04-25T02:36:36;14.73;;;6.93;;
19664;SDS011;9980;51.020;7.772;2023-04-25T02:39:02;8.30;;;5.67;;
19664;SDS011;9980;51.020;7.772;2023-04-25T02:41:28;6.87;;;5.83;;
19664;SDS011;9980;51.020;7.772;2023-04-25T02:43:55;12.17;;;6.73;;
19664;SDS011;9980;51.020;7.772;2023-04-25T02:46:21;11.13;;;6.07;;
19664;SDS011;9980;51.020;7.772;2023-04-25T02:49:04;11.47;;;6.93;;
19664;SDS011;9980;51.020;7.772;2023-04-25T02:51:31;13.53;;;6.53;;
19664;SDS011;9980;51.020;7.772;2023-04-25T02:53:58;7.97;;;5.93;;
19664;SDS011;9980;51.020;7.772;2023-04-25T02:56:24;13.17;;;7.27;;
19664;SDS011;9980;51.020;7.772;2023-04-25T02:58:51;13.30;;;6.90;;
19664;SDS011;9980;51.020;7.772;2023-04-25T03:01:18;12.80;;;6.67;;
19664;SDS011;9980;51.020;7.772;2023-04-25T03:03:45;9.90;;;6.60;;
19664;SDS011;9980;51.020;7.772;2023-04-25T03:06:12;16.50;;;6.37;;
19664;SDS011;9980;51.020;7.772;2023-04-25T03:08:38;8.97;;;6.63;;
19664;SDS011;9980;51.020;7.772;2023-04-25T03:11:04;11.63;;;7.47;;
19664;SDS011;9980;51.020;7.772;2023-04-25T03:13:30;13.47;;;7.03;;
19664;SDS011;9980;51.020;7.772;2023-04-25T03:15:57;10.87;;;6.10;;
19664;SDS011;9980;51.020;7.772;2023-04-25T03:18:24;11.40;;;6.60;;
19664;SDS011;9980;51.020;7.772;2023-04-25T03:20:51;13.60;;;6.93;;
19664;SDS011;9980;51.020;7.772;2023-04-25T03:23:17;12.57;;;7.13;;
19664;SDS011;9980;51.020;7.772;2023-04-25T03:25:44;10.53;;;7.07;;
19664;SDS011;9980;51.020;7.772;2023-04-25T03:28:10;13.10;;;6.40;;
19664;SDS011;9980;51.020;7.772;2023-04-25T03:30:37;12.00;;;6.73;;
19664;SDS011;9980;51.020;7.772;2023-04-25T03:33:03;9.07;;;6.70;;
19664;SDS011;9980;51.020;7.772;2023-04-25T03:35:30;19.67;;;7.63;;
19664;SDS011;9980;51.020;7.772;2023-04-25T03:37:56;12.83;;;6.80;;
19664;SDS011;9980;51.020;7.772;2023-04-25T03:40:27;10.00;;;7.50;;
19664;SDS011;9980;51.020;7.772;2023-04-25T03:43:12;12.50;;;7.60;;
19664;SDS011;9980;51.020;7.772;2023-04-25T03:45:44;9.33;;;6.90;;
19664;SDS011;9980;51.020;7.772;2023-04-25T03:48:11;12.63;;;7.50;;
19664;SDS011;9980;51.020;7.772;2023-04-25T03:50:37;15.13;;;7.93;;
19664;SDS011;9980;51.020;7.772;2023-04-25T03:53:04;14.30;;;7.63;;
19664;SDS011;9980;51.020;7.772;2023-04-25T03:55:44;12.23;;;7.70;;
19664;SDS011;9980;51.020;7.772;2023-04-25T03:58:10;11.60;;;7.20;;
19664;SDS011;9980;51.020;7.772;2023-04-25T04:00:37;13.67;;;7.43;;
19664;SDS011;9980;51.020;7.772;2023-04-25T04:03:03;9.93;;;7.33;;
19664;SDS011;9980;51.020;7.772;2023-04-25T04:05:30;9.77;;;7.60;;
19664;SDS011;9980;51.020;7.772;2023-04-25T04:07:58;10.53;;;8.20;;
19664;SDS011;9980;51.020;7.772;2023-04-25T04:10:24;10.20;;;7.57;;
19664;SDS011;9980;51.020;7.772;2023-04-25T04:12:53;10.83;;;7.97;;
19664;SDS011;9980;51.020;7.772;2023-04-25T04:15:20;11.70;;;7.50;;
19664;SDS011;9980;51.020;7.772;2023-04-25T04:17:48;12.07;;;7.40;;
19664;SDS011;9980;51.020;7.772;2023-04-25T04:20:14;8.97;;;6.80;;
19664;SDS011;9980;51.020;7.772;2023-04-25T04:22:40;17.60;;;8.67;;
19664;SDS011;9980;51.020;7.772;2023-04-25T04:25:10;13.07;;;7.97;;
19664;SDS011;9980;51.020;7.772;2023-04-25T04:28:00;11.80;;;7.87;;
19664;SDS011;9980;51.020;7.772;2023-04-25T04:30:47;12.57;;;8.30;;
19664;SDS011;9980;51.020;7.772;2023-04-25T04:33:17;13.17;;;9.03;;
19664;SDS011;9980;51.020;7.772;2023-04-25T04:35:47;14.37;;;9.17;;
19664;SDS011;9980;51.020;7.772;2023-04-25T04:38:15;16.17;;;7.60;;
19664;SDS011;9980;51.020;7.772;2023-04-25T04:40:41;15.03;;;8.77;;
19664;SDS011;9980;51.020;7.772;2023-04-25T04:43:31;14.63;;;9.43;;
19664;SDS011;9980;51.020;7.772;2023-04-25T04:46:07;10.63;;;7.73;;
19664;SDS011;9980;51.020;7.772;2023-04-25T04:49:09;17.47;;;8.77;;
19664;SDS011;9980;51.020;7.772;2023-04-25T04:52:02;14.80;;;8.97;;
19664;SDS011;9980;51.020;7.772;2023-04-25T04:54:37;9.17;;;7.47;;
19664;SDS011;9980;51.020;7.772;2023-04-25T04:57:16;13.40;;;8.57;;
19664;SDS011;9980;51.020;7.772;2023-04-25T05:00:13;13.20;;;8.43;;
19664;SDS011;9980;51.020;7.772;2023-04-25T05:02:56;15.47;;;9.33;;
19664;SDS011;9980;51.020;7.772;2023-04-25T05:05:57;13.27;;;9.13;;
19664;SDS011;9980;51.020;7.772;2023-04-25T05:08:53;12.77;;;9.43;;
19664;SDS011;9980;51.020;7.772;2023-04-25T05:11:22;16.70;;;10.40;;
19664;SDS011;9980;51.020;7.772;2023-04-25T05:14:04;14.93;;;9.47;;
19664;SDS011;9980;51.020;7.772;2023-04-25T05:16:43;18.13;;;10.60;;
19664;SDS011;9980;51.020;7.772;2023-04-25T05:19:39;15.00;;;9.17;;
19664;SDS011;9980;51.020;7.772;2023-04-25T05:22:23;11.27;;;9.70;;
19664;SDS011;9980;51.020;7.772;2023-04-25T05:25:10;12.37;;;9.50;;
19664;SDS011;9980;51.020;7.772;2023-04-25T05:27:56;17.97;;;9.97;;
19664;SDS011;9980;51.020;7.772;2023-04-25T05:30:41;14.87;;;9.93;;
19664;SDS011;9980;51.020;7.772;2023-04-25T05:33:13;12.03;;;9.93;;
19664;SDS011;9980;51.020;7.772;2023-04-25T05:35:40;13.33;;;9.50;;
19664;SDS011;9980;51.020;7.772;2023-04-25T05:38:06;20.07;;;10.07;;
19664;SDS011;9980;51.020;7.772;2023-04-25T05:41:04;12.70;;;9.00;;
19664;SDS011;9980;51.020;7.772;2023-04-25T05:43:52;12.17;;;8.27;;
19664;SDS011;9980;51.020;7.772;2023-04-25T05:46:34;11.77;;;8.87;;
19664;SDS011;9980;51.020;7.772;2023-04-25T05:49:21;13.37;;;8.63;;
19664;SDS011;9980;51.020;7.772;2023-04-25T05:52:17;13.30;;;7.93;;
19664;SDS011;9980;51.020;7.772;2023-04-25T05:54:53;12.97;;;6.47;;
19664;SDS011;9980;51.020;7.772;2023-04-25T05:57:20;10.60;;;6.70;;
19664;SDS011;9980;51.020;7.772;2023-04-25T05:59:54;9.23;;;7.53;;
19664;SDS011;9980;51.020;7.772;2023-04-25T06:02:21;14.87;;;8.43;;
19664;SDS011;9980;51.020;7.772;2023-04-25T06:04:49;12.07;;;7.77;;
19664;SDS011;9980;51.020;7.772;2023-04-25T06:07:17;17.50;;;8.13;;
19664;SDS011;9980;51.020;7.772;2023-04-25T06:09:45;17.70;;;9.10;;
19664;SDS011;9980;51.020;7.772;2023-04-25T06:12:12;11.00;;;7.37;;
19664;SDS011;9980;51.020;7.772;2023-04-25T06:14:38;13.43;;;8.57;;
19664;SDS011;9980;51.020;7.772;2023-04-25T06:17:06;14.60;;;8.90;;
19664;SDS011;9980;51.020;7.772;2023-04-25T06:19:34;10.17;;;7.97;;
19664;SDS011;9980;51.020;7.772;2023-04-25T06:22:01;14.93;;;8.07;;
19664;SDS011;9980;51.020;7.772;2023-04-25T06:24:29;14.63;;;8.37;;
19664;SDS011;9980;51.020;7.772;2023-04-25T06:26:56;10.57;;;7.20;;
19664;SDS011;9980;51.020;7.772;2023-04-25T06:29:22;10.87;;;7.50;;
19664;SDS011;9980;51.020;7.772;2023-04-25T06:31:49;6.30;;;5.53;;
19664;SDS011;9980;51.020;7.772;2023-04-25T06:34:15;6.10;;;4.43;;
19664;SDS011;9980;51.020;7.772;2023-04-25T06:36:42;4.40;;;4.00;;
19664;SDS011;9980;51.020;7.772;2023-04-25T06:39:12;5.20;;;4.10;;
19664;SDS011;9980;51.020;7.772;2023-04-25T06:41:39;4.60;;;4.07;;
19664;SDS011;9980;51.020;7.772;2023-04-25T06:44:08;6.30;;;3.97;;
19664;SDS011;9980;51.020;7.772;2023-04-25T06:46:38;5.10;;;4.60;;
19664;SDS011;9980;51.020;7.772;2023-04-25T06:49:05;4.33;;;3.80;;
19664;SDS011;9980;51.020;7.772;2023-04-25T06:51:32;4.50;;;4.10;;
19664;SDS011;9980;51.020;7.772;2023-04-25T06:53:59;6.80;;;4.57;;
19664;SDS011;9980;51.020;7.772;2023-04-25T06:56:31;7.10;;;4.77;;
19664;SDS011;9980;51.020;7.772;2023-04-25T06:59:06;6.17;;;3.87;;
19664;SDS011;9980;51.020;7.772;2023-04-25T07:01:35;4.93;;;4.30;;
19664;SDS011;9980;51.020;7.772;2023-04-25T07:04:05;6.53;;;3.73;;
19664;SDS011;9980;51.020;7.772;2023-04-25T07:06:34;4.53;;;4.00;;
19664;SDS011;9980;51.020;7.772;2023-04-25T07:09:03;13.27;;;4.93;;
19664;SDS011;9980;51.020;7.772;2023-04-25T07:11:30;10.23;;;4.27;;
19664;SDS011;9980;51.020;7.772;2023-04-25T07:13:59;7.50;;;4.23;;
19664;SDS011;9980;51.020;7.772;2023-04-25T07:16:26;13.90;;;4.37;;
19664;SDS011;9980;51.020;7.772;2023-04-25T07:18:52;8.47;;;4.17;;
19664;SDS011;9980;51.020;7.772;2023-04-25T07:21:19;7.43;;;4.50;;
19664;SDS011;9980;51.020;7.772;2023-04-25T07:23:48;12.90;;;5.67;;
19664;SDS011;9980;51.020;7.772;2023-04-25T07:26:18;11.97;;;5.53;;
19664;SDS011;9980;51.020;7.772;2023-04-25T07:29:15;9.17;;;5.00;;
19664;SDS011;9980;51.020;7.772;2023-04-25T07:31:42;7.50;;;5.07;;
19664;SDS011;9980;51.020;7.772;2023-04-25T07:34:09;9.83;;;4.80;;
19664;SDS011;9980;51.020;7.772;2023-04-25T07:36:37;8.27;;;5.23;;
19664;SDS011;9980;51.020;7.772;2023-04-25T07:39:04;10.73;;;5.20;;
19664;SDS011;9980;51.020;7.772;2023-04-25T07:41:30;10.03;;;4.80;;
19664;SDS011;9980;51.020;7.772;2023-04-25T07:43:58;12.27;;;5.07;;
19664;SDS011;9980;51.020;7.772;2023-04-25T07:46:24;9.10;;;4.90;;
19664;SDS011;9980;51.020;7.772;2023-04-25T07:48:51;8.93;;;5.50;;
19664;SDS011;9980;51.020;7.772;2023-04-25T07:51:18;11.83;;;5.00;;
19664;SDS011;9980;51.020;7.772;2023-04-25T07:53:46;7.53;;;4.83;;
19664;SDS011;9980;51.020;7.772;2023-04-25T07:56:15;6.00;;;4.23;;
19664;SDS011;9980;51.020;7.772;2023-04-25T07:58:47;8.53;;;4.77;;
19664;SDS011;9980;51.020;7.772;2023-04-25T08:01:15;11.80;;;4.93;;
19664;SDS011;9980;51.020;7.772;2023-04-25T08:03:42;8.30;;;4.83;;
19664;SDS011;9980;51.020;7.772;2023-04-25T08:06:15;8.37;;;4.80;;
19664;SDS011;9980;51.020;7.772;2023-04-25T08:09:11;6.40;;;4.27;;
19664;SDS011;9980;51.020;7.772;2023-04-25T08:11:40;7.47;;;4.20;;
19664;SDS011;9980;51.020;7.772;2023-04-25T08:14:09;7.03;;;3.93;;
19664;SDS011;9980;51.020;7.772;2023-04-25T08:16:38;6.37;;;4.50;;
19664;SDS011;9980;51.020;7.772;2023-04-25T08:19:05;9.00;;;4.80;;
19664;SDS011;9980;51.020;7.772;2023-04-25T08:21:32;9.03;;;4.37;;
19664;SDS011;9980;51.020;7.772;2023-04-25T08:24:02;6.60;;;4.57;;
19664;SDS011;9980;51.020;7.772;2023-04-25T08:26:33;8.93;;;4.80;;
19664;SDS011;9980;51.020;7.772;2023-04-25T08:29:01;6.57;;;4.40;;
19664;SDS011;9980;51.020;7.772;2023-04-25T08:31:27;6.63;;;4.50;;
19664;SDS011;9980;51.020;7.772;2023-04-25T08:33:57;9.53;;;4.43;;
19664;SDS011;9980;51.020;7.772;2023-04-25T08:36:36;6.03;;;4.33;;
19664;SDS011;9980;51.020;7.772;2023-04-25T08:39:24;5.97;;;4.30;;
19664;SDS011;9980;51.020;7.772;2023-04-25T08:42:09;8.43;;;4.40;;
19664;SDS011;9980;51.020;7.772;2023-04-25T08:44:38;8.83;;;4.60;;
19664;SDS011;9980;51.020;7.772;2023-04-25T08:47:05;9.80;;;4.70;;
19664;SDS011;9980;51.020;7.772;2023-04-25T08:49:38;8.10;;;4.47;;
19664;SDS011;9980;51.020;7.772;2023-04-25T08:52:13;7.93;;;4.60;;
19664;SDS011;9980;51.020;7.772;2023-04-25T08:54:44;7.33;;;4.37;;
19664;SDS011;9980;51.020;7.772;2023-04-25T08:57:15;8.23;;;3.83;;
19664;SDS011;9980;51.020;7.772;2023-04-25T08:59:45;7.90;;;4.10;;
19664;SDS011;9980;51.020;7.772;2023-04-25T09:02:14;8.17;;;4.03;;
19664;SDS011;9980;51.020;7.772;2023-04-25T09:04:46;7.83;;;4.10;;
19664;SDS011;9980;51.020;7.772;2023-04-25T09:07:14;7.43;;;4.37;;
19664;SDS011;9980;51.020;7.772;2023-04-25T09:09:44;7.30;;;4.17;;
19664;SDS011;9980;51.020;7.772;2023-04-25T09:12:10;8.37;;;4.37;;
19664;SDS011;9980;51.020;7.772;2023-04-25T09:14:39;4.50;;;4.10;;
19664;SDS011;9980;51.020;7.772;2023-04-25T09:17:17;8.67;;;4.67;;
19664;SDS011;9980;51.020;7.772;2023-04-25T09:19:55;10.47;;;4.90;;
19664;SDS011;9980;51.020;7.772;2023-04-25T09:22:36;8.73;;;4.63;;
19664;SDS011;9980;51.020;7.772;2023-04-25T09:25:07;8.17;;;4.33;;
19664;SDS011;9980;51.020;7.772;2023-04-25T09:27:50;6.77;;;4.40;;
19664;SDS011;9980;51.020;7.772;2023-04-25T09:30:31;8.03;;;4.30;;
19664;SDS011;9980;51.020;7.772;2023-04-25T09:33:06;8.83;;;3.97;;
19664;SDS011;9980;51.020;7.772;2023-04-25T09:35:39;7.93;;;3.43;;
19664;SDS011;9980;51.020;7.772;2023-04-25T09:38:14;6.10;;;3.70;;
19664;SDS011;9980;51.020;7.772;2023-04-25T09:41:02;5.87;;;3.87;;
19664;SDS011;9980;51.020;7.772;2023-04-25T09:43:39;5.53;;;3.27;;
19664;SDS011;9980;51.020;7.772;2023-04-25T09:46:09;7.27;;;3.70;;
19664;SDS011;9980;51.020;7.772;2023-04-25T09:48:40;6.30;;;3.43;;
19664;SDS011;9980;51.020;7.772;2023-04-25T09:51:14;4.57;;;3.37;;
19664;SDS011;9980;51.020;7.772;2023-04-25T09:53:43;8.93;;;3.17;;
19664;SDS011;9980;51.020;7.772;2023-04-25T09:56:31;5.03;;;3.77;;
19664;SDS011;9980;51.020;7.772;2023-04-25T09:59:06;4.90;;;3.70;;
19664;SDS011;9980;51.020;7.772;2023-04-25T10:01:36;8.63;;;3.80;;
19664;SDS011;9980;51.020;7.772;2023-04-25T10:04:11;6.83;;;3.70;;
19664;SDS011;9980;51.020;7.772;2023-04-25T10:07:05;8.03;;;4.10;;
19664;SDS011;9980;51.020;7.772;2023-04-25T10:09:34;6.07;;;3.90;;
19664;SDS011;9980;51.020;7.772;2023-04-25T10:12:05;6.77;;;3.57;;
19664;SDS011;9980;51.020;7.772;2023-04-25T10:14:34;7.77;;;4.10;;
19664;SDS011;9980;51.020;7.772;2023-04-25T10:17:01;6.33;;;3.57;;
19664;SDS011;9980;51.020;7.772;2023-04-25T10:19:27;5.50;;;2.93;;
19664;SDS011;9980;51.020;7.772;2023-04-25T10:21:58;5.77;;;3.60;;
19664;SDS011;9980;51.020;7.772;2023-04-25T10:24:46;7.63;;;4.33;;
19664;SDS011;9980;51.020;7.772;2023-04-25T10:27:13;7.87;;;4.27;;
19664;SDS011;9980;51.020;7.772;2023-04-25T10:29:40;5.30;;;3.80;;
19664;SDS011;9980;51.020;7.772;2023-04-25T10:32:08;4.43;;;2.70;;
19664;SDS011;9980;51.020;7.772;2023-04-25T10:34:45;6.10;;;3.30;;
19664;SDS011;9980;51.020;7.772;2023-04-25T10:37:14;6.50;;;3.43;;
19664;SDS011;9980;51.020;7.772;2023-04-25T10:39:40;5.87;;;3.50;;
19664;SDS011;9980;51.020;7.772;2023-04-25T10:42:08;7.60;;;3.10;;
19664;SDS011;9980;51.020;7.772;2023-04-25T10:44:34;5.23;;;2.97;;
19664;SDS011;9980;51.020;7.772;2023-04-25T10:47:06;5.13;;;2.60;;
19664;SDS011;9980;51.020;7.772;2023-04-25T10:49:41;2.77;;;2.30;;
19664;SDS011;9980;51.020;7.772;2023-04-25T10:52:12;3.20;;;2.40;;
19664;SDS011;9980;51.020;7.772;2023-04-25T10:54:50;4.07;;;2.30;;
19664;SDS011;9980;51.020;7.772;2023-04-25T10:57:32;7.83;;;2.73;;
19664;SDS011;9980;51.020;7.772;2023-04-25T11:00:10;2.80;;;2.40;;
19664;SDS011;9980;51.020;7.772;2023-04-25T11:02:51;6.43;;;2.40;;
19664;SDS011;9980;51.020;7.772;2023-04-25T11:08:12;4.33;;;2.90;;
19664;SDS011;9980;51.020;7.772;2023-04-25T11:10:43;7.17;;;2.63;;
19664;SDS011;9980;51.020;7.772;2023-04-25T11:13:10;4.20;;;2.70;;
19664;SDS011;9980;51.020;7.772;2023-04-25T11:15:36;7.53;;;2.90;;
19664;SDS011;9980;51.020;7.772;2023-04-25T11:18:03;4.07;;;2.10;;
19664;SDS011;9980;51.020;7.772;2023-04-25T11:20:29;4.23;;;2.27;;
19664;SDS011;9980;51.020;7.772;2023-04-25T11:22:59;3.17;;;2.10;;
19664;SDS011;9980;51.020;7.772;2023-04-25T11:25:25;2.13;;;1.87;;
19664;SDS011;9980;51.020;7.772;2023-04-25T11:27:52;4.53;;;2.00;;
19664;SDS011;9980;51.020;7.772;2023-04-25T11:30:24;3.87;;;2.17;;
19664;SDS011;9980;51.020;7.772;2023-04-25T11:32:52;11.93;;;2.07;;
19664;SDS011;9980;51.020;7.772;2023-04-25T11:35:19;4.90;;;2.30;;
19664;SDS011;9980;51.020;7.772;2023-04-25T11:37:48;4.27;;;2.10;;
19664;SDS011;9980;51.020;7.772;2023-04-25T11:40:15;4.03;;;2.20;;
19664;SDS011;9980;51.020;7.772;2023-04-25T11:42:43;3.57;;;2.10;;
19664;SDS011;9980;51.020;7.772;2023-04-25T11:45:13;3.00;;;1.97;;
19664;SDS011;9980;51.020;7.772;2023-04-25T11:47:40;2.67;;;2.10;;
19664;SDS011;9980;51.020;7.772;2023-04-25T11:50:07;3.40;;;2.57;;
19664;SDS011;9980;51.020;7.772;2023-04-25T11:52:38;4.97;;;2.10;;
19664;SDS011;9980;51.020;7.772;2023-04-25T11:55:14;5.23;;;2.10;;
19664;SDS011;9980;51.020;7.772;2023-04-25T11:57:43;4.37;;;2.00;;
19664;SDS011;9980;51.020;7.772;2023-04-25T12:02:45;8.10;;;2.60;;
19664;SDS011;9980;51.020;7.772;2023-04-25T12:05:20;3.70;;;2.07;;
19664;SDS011;9980;51.020;7.772;2023-04-25T12:10:39;4.07;;;2.60;;
19664;SDS011;9980;51.020;7.772;2023-04-25T12:13:20;4.20;;;2.10;;
19664;SDS011;9980;51.020;7.772;2023-04-25T12:15:51;4.53;;;2.30;;
19664;SDS011;9980;51.020;7.772;2023-04-25T12:18:23;3.93;;;2.47;;
19664;SDS011;9980;51.020;7.772;2023-04-25T12:20:53;2.60;;;2.30;;
19664;SDS011;9980;51.020;7.772;2023-04-25T12:23:25;3.07;;;2.20;;
19664;SDS011;9980;51.020;7.772;2023-04-25T12:25:56;4.00;;;2.60;;
19664;SDS011;9980;51.020;7.772;2023-04-25T12:28:24;4.53;;;2.20;;
19664;SDS011;9980;51.020;7.772;2023-04-25T12:31:02;7.53;;;2.07;;
19664;SDS011;9980;51.020;7.772;2023-04-25T12:33:34;2.60;;;2.40;;
19664;SDS011;9980;51.020;7.772;2023-04-25T12:36:02;2.60;;;2.23;;
19664;SDS011;9980;51.020;7.772;2023-04-25T12:38:38;2.90;;;2.30;;
19664;SDS011;9980;51.020;7.772;2023-04-25T12:41:06;4.90;;;2.40;;
19664;SDS011;9980;51.020;7.772;2023-04-25T12:43:33;5.73;;;2.60;;
19664;SDS011;9980;51.020;7.772;2023-04-25T12:46:00;3.00;;;2.53;;
19664;SDS011;9980;51.020;7.772;2023-04-25T12:48:26;2.63;;;2.13;;
19664;SDS011;9980;51.020;7.772;2023-04-25T12:50:53;6.57;;;2.70;;
19664;SDS011;9980;51.020;7.772;2023-04-25T12:53:19;5.57;;;2.67;;
19664;SDS011;9980;51.020;7.772;2023-04-25T12:55:48;5.73;;;2.60;;
19664;SDS011;9980;51.020;7.772;2023-04-25T12:58:15;5.83;;;2.50;;
19664;SDS011;9980;51.020;7.772;2023-04-25T13:00:43;3.50;;;2.50;;
19664;SDS011;9980;51.020;7.772;2023-04-25T13:03:11;4.80;;;2.70;;
19664;SDS011;9980;51.020;7.772;2023-04-25T13:05:38;2.67;;;2.17;;
19664;SDS011;9980;51.020;7.772;2023-04-25T13:08:05;6.67;;;2.57;;
19664;SDS011;9980;51.020;7.772;2023-04-25T13:10:31;6.33;;;2.57;;
19664;SDS011;9980;51.020;7.772;2023-04-25T13:12:59;4.57;;;2.57;;
19664;SDS011;9980;51.020;7.772;2023-04-25T13:15:26;3.67;;;2.37;;
19664;SDS011;9980;51.020;7.772;2023-04-25T13:17:52;4.13;;;2.70;;
19664;SDS011;9980;51.020;7.772;2023-04-25T13:20:19;4.53;;;2.20;;
19664;SDS011;9980;51.020;7.772;2023-04-25T13:22:47;6.43;;;2.57;;
19664;SDS011;9980;51.020;7.772;2023-04-25T13:25:13;5.10;;;2.70;;
19664;SDS011;9980;51.020;7.772;2023-04-25T13:27:41;4.13;;;2.40;;
19664;SDS011;9980;51.020;7.772;2023-04-25T13:30:09;5.13;;;2.57;;
19664;SDS011;9980;51.020;7.772;2023-04-25T13:32:36;4.03;;;2.60;;
19664;SDS011;9980;51.020;7.772;2023-04-25T13:35:08;7.57;;;2.50;;
19664;SDS011;9980;51.020;7.772;2023-04-25T13:37:38;6.67;;;2.50;;
19664;SDS011;9980;51.020;7.772;2023-04-25T13:40:06;2.83;;;2.60;;
19664;SDS011;9980;51.020;7.772;2023-04-25T13:42:36;5.63;;;2.77;;
19664;SDS011;9980;51.020;7.772;2023-04-25T13:45:04;6.13;;;2.33;;
19664;SDS011;9980;51.020;7.772;2023-04-25T13:47:31;4.20;;;2.23;;
19664;SDS011;9980;51.020;7.772;2023-04-25T13:49:58;3.17;;;2.50;;
19664;SDS011;9980;51.020;7.772;2023-04-25T13:52:25;3.63;;;2.23;;
19664;SDS011;9980;51.020;7.772;2023-04-25T13:54:51;4.93;;;2.70;;
19664;SDS011;9980;51.020;7.772;2023-04-25T13:57:17;6.60;;;3.13;;
19664;SDS011;9980;51.020;7.772;2023-04-25T13:59:44;4.67;;;2.93;;
19664;SDS011;9980;51.020;7.772;2023-04-25T14:02:12;3.77;;;2.60;;
19664;SDS011;9980;51.020;7.772;2023-04-25T14:04:38;4.47;;;2.33;;
19664;SDS011;9980;51.020;7.772;2023-04-25T14:07:04;3.77;;;2.50;;
19664;SDS011;9980;51.020;7.772;2023-04-25T14:09:30;4.20;;;2.60;;
19664;SDS011;9980;51.020;7.772;2023-04-25T14:11:57;3.63;;;2.70;;
19664;SDS011;9980;51.020;7.772;2023-04-25T14:14:23;4.93;;;2.23;;
19664;SDS011;9980;51.020;7.772;2023-04-25T14:16:50;3.50;;;2.60;;
19664;SDS011;9980;51.020;7.772;2023-04-25T14:19:19;6.93;;;2.67;;
19664;SDS011;9980;51.020;7.772;2023-04-25T14:21:47;4.27;;;3.03;;
19664;SDS011;9980;51.020;7.772;2023-04-25T14:24:14;3.97;;;2.50;;
19664;SDS011;9980;51.020;7.772;2023-04-25T14:26:41;3.73;;;2.50;;
19664;SDS011;9980;51.020;7.772;2023-04-25T14:29:09;5.43;;;2.80;;
19664;SDS011;9980;51.020;7.772;2023-04-25T14:31:37;4.10;;;2.70;;
19664;SDS011;9980;51.020;7.772;2023-04-25T14:34:05;5.03;;;2.73;;
19664;SDS011;9980;51.020;7.772;2023-04-25T14:36:31;3.37;;;2.23;;
19664;SDS011;9980;51.020;7.772;2023-04-25T14:38:58;2.83;;;2.30;;
19664;SDS011;9980;51.020;7.772;2023-04-25T14:41:25;2.73;;;2.30;;
19664;SDS011;9980;51.020;7.772;2023-04-25T14:43:52;2.83;;;2.00;;
19664;SDS011;9980;51.020;7.772;2023-04-25T14:46:19;3.20;;;2.33;;
19664;SDS011;9980;51.020;7.772;2023-04-25T14:48:46;3.73;;;2.20;;
19664;SDS011;9980;51.020;7.772;2023-04-25T14:51:13;2.60;;;1.87;;
19664;SDS011;9980;51.020;7.772;2023-04-25T14:53:39;2.47;;;2.27;;
19664;SDS011;9980;51.020;7.772;2023-04-25T14:56:06;4.50;;;2.03;;
19664;SDS011;9980;51.020;7.772;2023-04-25T14:58:33;7.50;;;2.27;;
19664;SDS011;9980;51.020;7.772;2023-04-25T15:01:00;2.17;;;1.97;;
19664;SDS011;9980;51.020;7.772;2023-04-25T15:03:26;2.50;;;2.00;;
19664;SDS011;9980;51.020;7.772;2023-04-25T15:05:54;3.10;;;2.03;;
19664;SDS011;9980;51.020;7.772;2023-04-25T15:08:21;2.80;;;1.87;;
19664;SDS011;9980;51.020;7.772;2023-04-25T15:10:47;3.53;;;1.97;;
19664;SDS011;9980;51.020;7.772;2023-04-25T15:13:14;2.93;;;2.00;;
19664;SDS011;9980;51.020;7.772;2023-04-25T15:15:40;4.20;;;1.97;;
19664;SDS011;9980;51.020;7.772;2023-04-25T15:18:07;2.53;;;1.97;;
19664;SDS011;9980;51.020;7.772;2023-04-25T15:20:33;2.00;;;1.90;;
19664;SDS011;9980;51.020;7.772;2023-04-25T15:23:00;2.27;;;1.93;;